createdAt,value
2022-10-20T00:00:42.911Z,6.97
2022-10-20T00:03:49.859Z,6.98
2022-10-20T00:06:54.715Z,6.98
2022-10-20T00:09:59.363Z,7.02
2022-10-20T00:13:04.129Z,6.95
2022-10-20T00:16:10.061Z,6.95
2022-10-20T00:19:16.233Z,6.91
2022-10-20T00:22:21.387Z,6.75
2022-10-20T00:25:26.096Z,6.91
2022-10-20T00:28:30.939Z,6.96
2022-10-20T00:31:36.434Z,6.89
2022-10-20T00:34:42.736Z,6.93
2022-10-20T00:37:47.578Z,6.91
2022-10-20T00:40:52.729Z,6.92
2022-10-20T00:43:59.737Z,6.87
2022-10-20T00:47:04.475Z,6.86
2022-10-20T00:50:16.910Z,6.85
2022-10-20T00:53:23.328Z,6.90
2022-10-20T00:56:28.390Z,6.81
2022-10-20T00:59:35.745Z,6.67
2022-10-20T01:02:40.461Z,6.73
2022-10-20T01:05:46.688Z,6.68
2022-10-20T01:08:52.264Z,6.54
2022-10-20T01:12:06.840Z,6.43
2022-10-20T01:15:20.705Z,6.62
2022-10-20T01:18:32.047Z,6.60
2022-10-20T01:21:56.412Z,6.62
2022-10-20T01:25:13.107Z,6.53
2022-10-20T01:28:24.296Z,6.53
2022-10-20T01:31:34.855Z,6.62
2022-10-20T01:34:47.981Z,6.63
2022-10-20T01:38:07.511Z,6.63
2022-10-20T01:41:18.964Z,6.58
2022-10-20T01:44:28.211Z,6.63
2022-10-20T01:47:35.201Z,6.62
2022-10-20T01:50:40.482Z,6.64
2022-10-20T01:53:45.130Z,6.62
2022-10-20T01:57:01.614Z,6.59
2022-10-20T02:00:10.810Z,6.54
2022-10-20T02:03:33.235Z,6.63
2022-10-20T02:06:44.236Z,6.55
2022-10-20T02:09:51.493Z,6.58
2022-10-20T02:13:00.595Z,6.55
2022-10-20T02:16:15.655Z,6.52
2022-10-20T02:19:23.964Z,6.51
2022-10-20T02:22:29.216Z,6.35
2022-10-20T02:25:35.227Z,6.47
2022-10-20T02:28:42.620Z,6.50
2022-10-20T02:31:49.171Z,6.46
2022-10-20T02:34:53.900Z,6.44
2022-10-20T02:37:59.423Z,6.39
2022-10-20T02:41:04.161Z,6.36
2022-10-20T02:44:08.818Z,6.42
2022-10-20T02:47:15.057Z,6.41
2022-10-20T02:50:20.232Z,6.42
2022-10-20T02:53:24.920Z,6.39
2022-10-20T02:56:31.038Z,6.44
2022-10-20T02:59:36.103Z,6.41
2022-10-20T03:02:42.303Z,6.34
2022-10-20T03:05:47.645Z,6.30
2022-10-20T03:08:52.351Z,6.30
2022-10-20T03:11:57.131Z,6.31
2022-10-20T03:15:02.092Z,6.31
2022-10-20T03:18:08.466Z,6.35
2022-10-20T03:21:13.110Z,6.42
2022-10-20T03:24:18.362Z,6.41
2022-10-20T03:27:23.194Z,6.34
2022-10-20T03:30:27.968Z,6.36
2022-10-20T03:33:34.737Z,6.29
2022-10-20T03:36:39.499Z,6.19
2022-10-20T03:39:44.458Z,6.23
2022-10-20T03:42:49.303Z,6.23
2022-10-20T03:46:03.627Z,6.27
2022-10-20T03:49:09.782Z,6.25
2022-10-20T03:52:14.698Z,6.23
2022-10-20T03:55:20.755Z,6.24
2022-10-20T03:58:25.525Z,6.26
2022-10-20T04:01:32.978Z,6.22
2022-10-20T04:04:39.693Z,6.20
2022-10-20T04:07:44.756Z,6.20
2022-10-20T04:10:49.466Z,6.14
2022-10-20T04:13:54.619Z,6.12
2022-10-20T04:16:59.626Z,5.98
2022-10-20T04:20:07.706Z,6.00
2022-10-20T04:23:13.349Z,6.08
2022-10-20T04:26:18.395Z,6.00
2022-10-20T04:29:23.410Z,5.95
2022-10-20T04:32:28.180Z,6.04
2022-10-20T04:35:34.286Z,6.05
2022-10-20T04:38:39.595Z,6.03
2022-10-20T04:41:44.829Z,5.96
2022-10-20T04:44:49.607Z,5.93
2022-10-20T04:47:55.101Z,5.92
2022-10-20T04:51:06.223Z,5.82
2022-10-20T04:54:11.244Z,5.94
2022-10-20T04:57:16.141Z,5.88
2022-10-20T05:00:21.020Z,5.95
2022-10-20T05:03:25.937Z,5.93
2022-10-20T05:06:34.194Z,5.96
2022-10-20T05:09:39.069Z,5.84
2022-10-20T05:12:43.701Z,5.96
2022-10-20T05:15:53.696Z,5.93
2022-10-20T05:18:58.740Z,5.96
2022-10-20T05:22:04.769Z,6.01
2022-10-20T05:25:34.889Z,5.98
2022-10-20T05:28:35.670Z,5.87
2022-10-20T05:31:43.475Z,5.96
2022-10-20T05:34:48.206Z,5.97
2022-10-20T05:37:54.469Z,5.97
2022-10-20T05:41:08.271Z,5.97
2022-10-20T05:44:14.245Z,5.78
2022-10-20T05:47:19.440Z,5.89
2022-10-20T05:50:24.197Z,5.92
2022-10-20T05:53:30.356Z,5.94
2022-10-20T05:56:35.396Z,5.93
2022-10-20T05:59:40.622Z,5.91
2022-10-20T06:02:45.435Z,5.97
2022-10-20T06:05:50.199Z,5.99
2022-10-20T06:08:59.730Z,5.97
2022-10-20T06:12:05.792Z,5.95
2022-10-20T06:15:11.554Z,5.84
2022-10-20T06:18:19.126Z,5.88
2022-10-20T06:21:26.223Z,5.92
2022-10-20T06:24:32.295Z,5.99
2022-10-20T06:27:36.944Z,6.01
2022-10-20T06:30:42.128Z,6.03
2022-10-20T06:33:47.707Z,5.98
2022-10-20T06:36:52.716Z,5.95
2022-10-20T06:39:58.855Z,6.02
2022-10-20T06:43:03.533Z,5.96
2022-10-20T06:46:12.168Z,5.91
2022-10-20T06:49:17.106Z,5.97
2022-10-20T06:52:21.732Z,6.01
2022-10-20T06:55:27.855Z,6.03
2022-10-20T06:58:33.409Z,6.05
2022-10-20T07:01:39.845Z,6.12
2022-10-20T07:04:44.761Z,6.15
2022-10-20T07:07:49.496Z,6.11
2022-10-20T07:11:07.159Z,6.13
2022-10-20T07:14:14.468Z,6.21
2022-10-20T07:17:19.169Z,6.18
2022-10-20T07:20:24.007Z,6.09
2022-10-20T07:23:31.441Z,6.16
2022-10-20T07:26:39.719Z,6.04
2022-10-20T07:29:44.382Z,6.14
2022-10-20T07:32:49.134Z,6.19
2022-10-20T07:35:53.964Z,6.34
2022-10-20T07:39:00.550Z,6.29
2022-10-20T07:42:07.062Z,6.31
2022-10-20T07:45:12.280Z,6.37
2022-10-20T07:48:17.135Z,6.37
2022-10-20T07:51:31.040Z,6.38
2022-10-20T07:54:36.264Z,6.38
2022-10-20T07:57:42.364Z,6.41
2022-10-20T08:00:47.354Z,6.52
2022-10-20T08:03:52.364Z,6.40
2022-10-20T08:06:57.010Z,6.44
2022-10-20T08:10:01.758Z,6.46
2022-10-20T08:13:08.676Z,6.50
2022-10-20T08:16:15.356Z,6.53
2022-10-20T08:19:31.673Z,6.51
2022-10-20T08:22:37.367Z,6.58
2022-10-20T08:25:42.853Z,6.61
2022-10-20T08:28:49.655Z,6.64
2022-10-20T08:31:54.426Z,6.70
2022-10-20T08:34:59.184Z,6.70
2022-10-20T08:38:07.116Z,6.73
2022-10-20T08:41:19.223Z,6.74
2022-10-20T08:44:28.618Z,6.79
2022-10-20T08:47:38.183Z,6.79
2022-10-20T08:50:47.936Z,6.85
2022-10-20T08:53:56.354Z,6.88
2022-10-20T08:57:01.068Z,6.88
2022-10-20T09:00:18.407Z,6.89
2022-10-20T09:03:28.501Z,6.94
2022-10-20T09:06:33.228Z,6.94
2022-10-20T09:09:38.120Z,7.03
2022-10-20T09:12:44.930Z,7.05
2022-10-20T09:15:54.863Z,7.09
2022-10-20T09:19:01.554Z,7.04
2022-10-20T09:22:08.242Z,7.14
2022-10-20T09:25:18.359Z,7.12
2022-10-20T09:28:26.406Z,7.21
2022-10-20T09:31:36.524Z,7.22
2022-10-20T09:34:41.202Z,7.21
2022-10-20T09:37:49.181Z,7.27
2022-10-20T09:41:10.305Z,7.39
2022-10-20T09:44:23.585Z,7.49
2022-10-20T09:47:30.713Z,7.49
2022-10-20T09:50:38.779Z,7.42
2022-10-20T09:53:53.313Z,7.56
2022-10-20T09:57:07.092Z,7.58
2022-10-20T10:00:36.733Z,7.61
2022-10-20T10:03:45.787Z,7.68
2022-10-20T10:06:50.966Z,7.69
2022-10-20T10:10:02.680Z,7.67
2022-10-20T10:13:25.138Z,7.68
2022-10-20T10:16:30.501Z,7.75
2022-10-20T10:19:36.873Z,7.85
2022-10-20T10:22:42.101Z,7.84
2022-10-20T10:25:47.036Z,7.86
2022-10-20T10:29:00.006Z,7.88
2022-10-20T10:32:15.330Z,7.95
2022-10-20T10:35:27.251Z,8.07
2022-10-20T10:38:32.107Z,8.16
2022-10-20T10:41:55.062Z,8.13
2022-10-20T10:45:09.535Z,8.18
2022-10-20T10:49:00.877Z,8.21
2022-10-20T10:52:22.236Z,8.22
2022-10-20T10:55:48.705Z,8.28
2022-10-20T10:58:59.354Z,8.28
2022-10-20T11:02:53.220Z,8.44
2022-10-20T11:06:12.975Z,8.66
2022-10-20T11:09:29.375Z,8.72
2022-10-20T11:12:59.868Z,8.66
2022-10-20T11:16:29.844Z,8.62
2022-10-20T11:20:00.834Z,8.73
2022-10-20T11:23:54.572Z,8.82
2022-10-20T11:27:05.672Z,8.89
2022-10-20T11:30:18.592Z,8.86
2022-10-20T11:33:26.842Z,8.99
2022-10-20T11:36:37.130Z,8.92
2022-10-20T11:39:47.384Z,8.88
2022-10-20T11:43:00.622Z,8.99
2022-10-20T11:46:09.659Z,8.97
2022-10-20T11:49:14.364Z,8.94
2022-10-20T11:53:05.832Z,8.95
2022-10-20T11:56:34.161Z,9.03
2022-10-20T12:00:30.818Z,9.00
2022-10-20T12:04:06.355Z,9.02
2022-10-20T12:07:57.245Z,9.04
2022-10-20T12:11:22.642Z,9.10
2022-10-20T12:14:32.042Z,9.07
2022-10-20T12:17:39.353Z,9.08
2022-10-20T12:21:02.934Z,9.04
2022-10-20T12:24:33.472Z,9.17
2022-10-20T12:27:38.193Z,9.13
2022-10-20T12:30:45.372Z,9.12
2022-10-20T12:34:03.935Z,9.13
2022-10-20T12:37:10.368Z,9.09
2022-10-20T12:40:26.875Z,9.10
2022-10-20T12:43:51.165Z,9.11
2022-10-20T12:46:59.319Z,9.06
2022-10-20T12:50:17.335Z,9.13
2022-10-20T12:53:26.813Z,9.16
2022-10-20T12:56:37.822Z,9.28
2022-10-20T12:59:42.886Z,9.24
2022-10-20T13:02:56.888Z,9.19
2022-10-20T13:06:04.429Z,9.14
2022-10-20T13:09:23.971Z,9.20
2022-10-20T13:12:30.771Z,9.17
2022-10-20T13:15:39.268Z,9.19
2022-10-20T13:18:49.806Z,9.18
2022-10-20T13:21:57.123Z,9.11
2022-10-20T13:25:02.466Z,9.12
2022-10-20T13:28:18.202Z,9.19
2022-10-20T13:31:27.052Z,9.20
2022-10-20T13:34:39.613Z,9.14
2022-10-20T13:37:56.623Z,9.17
2022-10-20T13:41:08.488Z,9.23
2022-10-20T13:44:31.364Z,9.17
2022-10-20T13:47:51.800Z,9.20
2022-10-20T13:50:59.620Z,9.15
2022-10-20T13:54:06.951Z,9.22
2022-10-20T13:57:26.775Z,9.11
2022-10-20T14:00:34.430Z,9.16
2022-10-20T14:03:44.674Z,9.19
2022-10-20T14:06:49.606Z,9.21
2022-10-20T14:09:59.957Z,9.22
2022-10-20T14:13:09.254Z,9.19
2022-10-20T14:16:21.391Z,9.16
2022-10-20T14:19:28.307Z,9.13
2022-10-20T14:22:34.380Z,9.10
2022-10-20T14:25:42.136Z,9.14
2022-10-20T14:28:47.559Z,9.09
2022-10-20T14:31:52.512Z,9.07
2022-10-20T14:35:00.149Z,9.06
2022-10-20T14:38:08.709Z,9.07
2022-10-20T14:41:26.720Z,9.03
2022-10-20T14:44:32.035Z,9.00
2022-10-20T14:47:41.472Z,8.98
2022-10-20T14:50:46.102Z,8.93
2022-10-20T14:53:50.830Z,8.86
2022-10-20T14:56:59.756Z,8.83
2022-10-20T15:00:33.578Z,8.89
2022-10-20T15:03:38.546Z,8.87
2022-10-20T15:06:44.094Z,8.80
2022-10-20T15:09:51.298Z,8.80
2022-10-20T15:12:57.536Z,8.72
2022-10-20T15:16:04.591Z,8.63
2022-10-20T15:19:37.235Z,8.59
2022-10-20T15:22:43.259Z,8.57
2022-10-20T15:25:52.575Z,8.48
2022-10-20T15:28:58.592Z,8.49
2022-10-20T15:32:03.529Z,8.44
2022-10-20T15:35:13.376Z,8.48
2022-10-20T15:38:18.130Z,8.44
2022-10-20T15:41:26.311Z,8.41
2022-10-20T15:44:32.335Z,8.39
2022-10-20T15:47:37.012Z,8.41
2022-10-20T15:50:42.217Z,8.38
2022-10-20T15:53:49.553Z,8.37
2022-10-20T15:56:54.203Z,8.31
2022-10-20T16:00:00.375Z,8.29
2022-10-20T16:03:05.944Z,8.28
2022-10-20T16:06:13.370Z,8.25
2022-10-20T16:09:18.145Z,8.18
2022-10-20T16:12:22.845Z,8.14
2022-10-20T16:15:30.448Z,8.19
2022-10-20T16:18:36.755Z,8.20
2022-10-20T16:21:41.463Z,8.17
2022-10-20T16:24:47.552Z,8.14
2022-10-20T16:27:53.515Z,8.11
2022-10-20T16:31:08.720Z,8.10
2022-10-20T16:34:14.320Z,8.07
2022-10-20T16:37:20.481Z,8.02
2022-10-20T16:40:25.245Z,7.94
2022-10-20T16:43:30.461Z,7.99
2022-10-20T16:46:36.576Z,7.95
2022-10-20T16:49:41.323Z,7.88
2022-10-20T16:52:46.135Z,7.92
2022-10-20T16:55:55.073Z,7.93
2022-10-20T16:58:59.819Z,7.86
2022-10-20T17:02:06.179Z,7.84
2022-10-20T17:05:12.953Z,7.82
2022-10-20T17:08:17.650Z,7.82
2022-10-20T17:11:25.755Z,7.76
2022-10-20T17:14:30.479Z,7.65
2022-10-20T17:17:36.986Z,7.59
2022-10-20T17:20:41.953Z,7.63
2022-10-20T17:23:47.586Z,7.57
2022-10-20T17:26:52.294Z,7.55
2022-10-20T17:29:57.334Z,7.56
2022-10-20T17:33:03.385Z,7.51
2022-10-20T17:36:09.749Z,7.53
2022-10-20T17:39:17.449Z,7.59
2022-10-20T17:42:22.287Z,7.55
2022-10-20T17:45:26.983Z,7.54
2022-10-20T17:48:33.064Z,7.43
2022-10-20T17:51:38.076Z,7.41
2022-10-20T17:54:43.252Z,7.36
2022-10-20T17:57:48.122Z,7.39
2022-10-20T18:00:56.370Z,7.37
2022-10-20T18:04:06.303Z,7.36
2022-10-20T18:07:13.220Z,7.32
2022-10-20T18:10:18.379Z,7.30
2022-10-20T18:13:23.586Z,7.27
2022-10-20T18:16:31.370Z,7.24
2022-10-20T18:19:37.628Z,7.21
2022-10-20T18:22:42.289Z,7.19
2022-10-20T18:25:47.006Z,7.18
2022-10-20T18:28:52.030Z,7.18
2022-10-20T18:31:57.006Z,7.16
2022-10-20T18:35:03.394Z,7.18
2022-10-20T18:38:08.453Z,7.15
2022-10-20T18:41:15.806Z,7.16
2022-10-20T18:44:21.735Z,7.11
2022-10-20T18:47:26.480Z,7.12
2022-10-20T18:50:33.484Z,7.11
2022-10-20T18:56:46.111Z,7.12
2022-10-20T18:59:51.298Z,7.05
2022-10-20T19:02:58.033Z,7.10
2022-10-20T19:06:09.620Z,7.07
2022-10-20T19:09:17.085Z,7.06
2022-10-20T19:12:22.153Z,7.04
2022-10-20T19:15:27.090Z,7.07
2022-10-20T19:18:31.992Z,6.91
2022-10-20T19:21:39.197Z,6.90
2022-10-20T19:24:43.873Z,6.96
2022-10-20T19:27:48.571Z,6.95
2022-10-20T19:30:53.280Z,6.96
2022-10-20T19:34:01.464Z,6.94
2022-10-20T19:37:08.078Z,6.98
2022-10-20T19:40:13.897Z,6.93
2022-10-20T19:43:18.788Z,6.93
2022-10-20T19:46:23.972Z,6.77
2022-10-20T19:49:28.895Z,6.86
2022-10-20T19:52:35.468Z,6.90
2022-10-20T19:55:40.987Z,6.85
2022-10-20T19:58:48.418Z,6.90
2022-10-20T20:01:53.271Z,6.93
2022-10-20T20:04:57.993Z,6.92
2022-10-20T20:08:04.094Z,6.93
2022-10-20T20:11:10.390Z,6.96
2022-10-20T20:14:18.426Z,6.91
2022-10-20T20:17:23.146Z,6.94
2022-10-20T20:20:27.854Z,6.97
2022-10-20T20:23:54.441Z,6.94
2022-10-20T20:27:00.465Z,7.01
2022-10-20T20:30:07.591Z,7.08
2022-10-20T20:33:15.671Z,7.08
2022-10-20T20:36:21.034Z,7.07
2022-10-20T20:39:27.197Z,7.03
2022-10-20T20:42:32.083Z,7.04
2022-10-20T20:45:39.934Z,7.05
2022-10-20T20:48:47.695Z,7.04
2022-10-20T20:51:52.415Z,7.08
2022-10-20T20:54:59.245Z,7.12
2022-10-20T20:58:03.968Z,7.14
2022-10-20T21:01:12.640Z,7.15
2022-10-20T21:04:17.480Z,7.15
2022-10-20T21:07:22.051Z,7.21
2022-10-20T21:10:28.534Z,7.27
2022-10-20T21:13:33.830Z,7.19
2022-10-20T21:16:39.227Z,7.28
2022-10-20T21:19:43.931Z,7.32
2022-10-20T21:22:48.796Z,7.32
2022-10-20T21:25:55.284Z,7.35
2022-10-20T21:29:00.204Z,7.39
2022-10-20T21:32:04.919Z,7.43
2022-10-20T21:35:10.243Z,7.41
2022-10-20T21:38:15.455Z,7.46
2022-10-20T21:41:23.643Z,7.46
2022-10-20T21:44:28.298Z,7.47
2022-10-20T21:47:33.124Z,7.50
2022-10-20T21:50:38.500Z,7.59
2022-10-20T21:53:43.542Z,7.63
2022-10-20T21:56:50.345Z,7.64
2022-10-20T21:59:55.033Z,7.68
2022-10-20T22:03:00.380Z,7.70
2022-10-20T22:06:05.506Z,7.67
2022-10-20T22:09:13.728Z,7.66
2022-10-20T22:12:21.174Z,7.69
2022-10-20T22:15:26.089Z,7.75
2022-10-20T22:18:30.679Z,7.75
2022-10-20T22:21:38.314Z,7.79
2022-10-20T22:24:43.256Z,7.73
2022-10-20T22:27:49.554Z,7.81
2022-10-20T22:30:54.399Z,7.83
2022-10-20T22:34:00.728Z,7.80
2022-10-20T22:37:07.986Z,7.85
2022-10-20T22:40:13.950Z,7.85
2022-10-20T22:43:20.261Z,7.80
2022-10-20T22:46:24.872Z,7.83
2022-10-20T22:49:29.831Z,7.84
2022-10-20T22:52:34.690Z,7.87
2022-10-20T22:55:39.494Z,7.86
2022-10-20T22:58:46.246Z,7.89
2022-10-20T23:01:50.955Z,7.87
2022-10-20T23:04:55.775Z,7.81
2022-10-20T23:08:00.446Z,7.89
2022-10-20T23:11:05.220Z,7.91
2022-10-20T23:14:12.247Z,7.91
2022-10-20T23:17:16.924Z,7.95
2022-10-20T23:20:22.278Z,8.01
2022-10-20T23:23:27.601Z,8.03
2022-10-20T23:26:32.470Z,8.03
2022-10-20T23:29:39.053Z,8.07
2022-10-20T23:32:43.978Z,8.10
2022-10-20T23:35:49.124Z,8.07
2022-10-20T23:38:54.482Z,8.07
2022-10-20T23:42:02.328Z,8.04
2022-10-20T23:45:14.754Z,8.03
2022-10-20T23:48:19.974Z,8.02
2022-10-20T23:51:24.655Z,7.98
2022-10-20T23:54:29.330Z,7.95
2022-10-20T23:57:33.954Z,7.99
